メインページ
METAR-TAF:

METAR-TAF

空港 :

Quesnel, ブリティッシュコロンビア州, カナダ

緯度: 53-02N, 経度: 122-31W, 海抜: 545m

現時点の気象観測

当レポートは44分前の02:00(UTC)に作成
南/南東の風 5kt
気温 11°C
湿度 37%
気圧 1017 hPa
視程: 14.5km
高度10000ftの雲はほとんどない
高度12000ftの千切れ雲あり

METAR: CYQZ 200200Z AUTO 16005KT 9SM FEW100 BKN120 11/M03 A3002 RMK SLP188

時間: 19:44 (02:44 UTC)

予報

当レポートは2時間4分前の00:40(UTC)に作成
予報は20日の 01時(UTC)から 20日の 06時(UTC)まで有効
の風 6kt
視程: 10km
高度7000ftの雲は散在している
高度12000ftの曇り
20日の 01時(UTC)から 20日の 06時(UTC)まで一時的に
視程: 10km
高度7000ftの千切れ雲あり
高度12000ftの曇り
小雨

TAF: CYQZ 200040Z 2001/2006 18006KT P6SM SCT070 OVC120 TEMPO 2001/2006 P6SM -RA BKN070 OVC120 RMK FCST BASED ON AUTO OBS. NXT FCST WILL BE ISSUED AT 201145Z

4,000以上の空港の気象観測と天気予報(METAR報とTAF報)

利用可能な観測所は地図上に黄色い丸と赤い丸で示す。

丸の上にカーソルを重ねると観測所名を参照できる。

次にクリックすると気象観測と天気予報を参照できる。

マップの切り替え:黒色「×」印の緑ボタンをクリックして拡大、「-」印の緑ボタンをクリックして縮小、緑色の三角印をクリックして隣りの地図に切り替え


METAR-TAF: